createdAt,value
2023-05-23T00:11:04.223Z,77.99
2023-05-23T00:25:56.449Z,78.48
2023-05-23T00:40:49.101Z,78.91
2023-05-23T00:55:42.796Z,79.02
2023-05-23T01:10:35.794Z,79.10
2023-05-23T01:25:49.033Z,79.62
2023-05-23T01:40:46.516Z,80.25
2023-05-23T01:55:37.283Z,80.86
2023-05-23T02:10:43.054Z,81.39
2023-05-23T02:25:32.712Z,81.90
2023-05-23T02:40:24.636Z,81.92
2023-05-23T02:55:17.177Z,82.02
2023-05-23T04:09:38.761Z,79.89
2023-05-23T04:39:25.627Z,78.14
2023-05-23T04:54:17.752Z,74.67
2023-05-23T05:24:03.797Z,70.75
2023-05-23T05:38:57.792Z,68.75
2023-05-23T05:53:51.927Z,68.47
2023-05-23T06:08:44.471Z,68.06
2023-05-23T06:23:36.589Z,67.26
2023-05-23T06:38:32.870Z,67.97
2023-05-23T06:53:25.409Z,65.33
2023-05-23T07:08:20.026Z,64.70
2023-05-23T07:23:11.751Z,62.77
2023-05-23T07:38:03.439Z,62.88
2023-05-23T07:52:55.952Z,61.63
2023-05-23T08:07:49.576Z,61.62
2023-05-23T08:22:41.445Z,61.33
2023-05-23T08:37:35.592Z,60.87
2023-05-23T08:52:27.728Z,59.68
2023-05-23T09:07:21.088Z,58.91
2023-05-23T09:22:13.204Z,58.06
2023-05-23T09:37:05.321Z,56.78
2023-05-23T09:51:57.903Z,55.93
2023-05-23T10:06:53.388Z,55.97
2023-05-23T10:21:51.959Z,55.20
2023-05-23T10:37:04.585Z,54.56
2023-05-23T10:52:02.836Z,54.55
2023-05-23T11:06:57.008Z,54.69
2023-05-23T11:21:49.151Z,54.53
2023-05-23T11:36:41.668Z,53.76
2023-05-23T11:51:34.244Z,54.17
2023-05-23T12:06:24.742Z,55.09
2023-05-23T12:21:17.250Z,55.53
2023-05-23T12:36:09.375Z,55.32
2023-05-23T12:51:02.713Z,53.98
2023-05-23T14:05:27.550Z,50.46
2023-05-23T14:20:20.487Z,49.68
2023-05-23T14:35:12.645Z,49.59
2023-05-23T14:50:06.773Z,52.45
2023-05-23T15:04:58.490Z,52.17
2023-05-23T15:19:56.905Z,47.90
2023-05-23T15:34:48.281Z,48.98
2023-05-23T15:49:42.458Z,48.42
2023-05-23T16:34:17.600Z,49.12
2023-05-23T16:49:08.722Z,50.68
2023-05-23T17:04:00.363Z,52.34
2023-05-23T17:18:51.596Z,53.36
2023-05-23T17:48:49.492Z,54.39
2023-05-23T18:03:41.837Z,55.79
2023-05-23T18:18:33.946Z,55.80
2023-05-23T18:33:27.462Z,56.83
2023-05-23T18:48:18.207Z,57.48
2023-05-23T19:03:10.419Z,56.26
2023-05-23T19:18:03.406Z,56.74
2023-05-23T19:33:14.562Z,56.48
2023-05-23T19:48:00.130Z,57.02
2023-05-23T20:02:51.408Z,56.79
2023-05-23T20:17:42.909Z,56.56
2023-05-23T20:32:35.096Z,55.81
2023-05-23T20:47:25.268Z,54.67
2023-05-23T21:02:17.834Z,54.71
2023-05-23T21:17:11.221Z,54.95
2023-05-23T21:32:03.899Z,55.07
2023-05-23T21:46:56.236Z,55.23
2023-05-23T22:16:40.729Z,55.63
2023-05-23T22:31:33.026Z,54.12
2023-05-23T22:46:24.358Z,52.67
2023-05-23T23:01:16.307Z,52.39
2023-05-23T23:16:10.035Z,52.30
2023-05-23T23:31:00.401Z,52.85
2023-05-23T23:45:54.069Z,53.42
